sensor_id;sensor_type;location;lat;lon;timestamp;pressure;altitude;pressure_sealevel;temperature;humidity
55801;BME280;41730;51.960;20.158;2023-02-28T00:00:55;101663.20;;;-0.39;58.76
55801;BME280;41730;51.960;20.158;2023-02-28T00:03:26;101656.46;;;-0.26;58.67
55801;BME280;41730;51.960;20.158;2023-02-28T00:05:58;101657.66;;;-0.26;58.11
55801;BME280;41730;51.960;20.158;2023-02-28T00:08:30;101657.40;;;-0.43;58.75
55801;BME280;41730;51.960;20.158;2023-02-28T00:11:04;101660.69;;;-0.57;59.09
55801;BME280;41730;51.960;20.158;2023-02-28T00:13:39;101663.09;;;-0.70;59.25
55801;BME280;41730;51.960;20.158;2023-02-28T00:16:18;101653.21;;;-0.79;59.49
55801;BME280;41730;51.960;20.158;2023-02-28T00:18:56;101664.42;;;-0.65;59.17
55801;BME280;41730;51.960;20.158;2023-02-28T00:21:28;101661.53;;;-0.68;59.29
55801;BME280;41730;51.960;20.158;2023-02-28T00:24:00;101659.49;;;-0.71;59.42
55801;BME280;41730;51.960;20.158;2023-02-28T00:26:32;101658.13;;;-0.71;59.21
55801;BME280;41730;51.960;20.158;2023-02-28T00:29:04;101656.28;;;-0.76;59.21
55801;BME280;41730;51.960;20.158;2023-02-28T00:31:36;101660.10;;;-0.77;59.25
55801;BME280;41730;51.960;20.158;2023-02-28T00:34:08;101655.44;;;-0.77;59.37
55801;BME280;41730;51.960;20.158;2023-02-28T00:36:41;101660.63;;;-0.79;59.25
55801;BME280;41730;51.960;20.158;2023-02-28T00:39:15;101658.86;;;-0.76;59.15
55801;BME280;41730;51.960;20.158;2023-02-28T00:41:49;101662.52;;;-0.79;59.25
55801;BME280;41730;51.960;20.158;2023-02-28T00:44:21;101664.35;;;-0.74;59.15
55801;BME280;41730;51.960;20.158;2023-02-28T00:46:53;101663.61;;;-0.70;59.10
55801;BME280;41730;51.960;20.158;2023-02-28T00:49:27;101664.83;;;-0.71;58.99
55801;BME280;41730;51.960;20.158;2023-02-28T00:51:59;101663.81;;;-0.72;58.93
55801;BME280;41730;51.960;20.158;2023-02-28T00:54:31;101663.89;;;-0.78;59.06
55801;BME280;41730;51.960;20.158;2023-02-28T00:57:06;101661.69;;;-0.81;59.08
55801;BME280;41730;51.960;20.158;2023-02-28T00:59:41;101660.42;;;-0.89;59.09
55801;BME280;41730;51.960;20.158;2023-02-28T01:02:13;101665.73;;;-0.89;59.33
55801;BME280;41730;51.960;20.158;2023-02-28T01:04:45;101663.65;;;-0.88;59.11
55801;BME280;41730;51.960;20.158;2023-02-28T01:07:17;101664.49;;;-0.71;58.88
55801;BME280;41730;51.960;20.158;2023-02-28T01:09:49;101662.45;;;-0.74;58.88
55801;BME280;41730;51.960;20.158;2023-02-28T01:12:20;101667.08;;;-0.85;59.17
55801;BME280;41730;51.960;20.158;2023-02-28T01:14:52;101666.82;;;-0.92;59.35
55801;BME280;41730;51.960;20.158;2023-02-28T01:17:24;101664.36;;;-0.89;59.23
55801;BME280;41730;51.960;20.158;2023-02-28T01:19:56;101665.89;;;-0.86;59.28
55801;BME280;41730;51.960;20.158;2023-02-28T01:22:28;101669.89;;;-0.90;59.27
55801;BME280;41730;51.960;20.158;2023-02-28T01:25:02;101669.98;;;-0.97;59.53
55801;BME280;41730;51.960;20.158;2023-02-28T01:27:35;101668.59;;;-1.12;59.71
55801;BME280;41730;51.960;20.158;2023-02-28T01:30:11;101668.28;;;-1.32;60.23
55801;BME280;41730;51.960;20.158;2023-02-28T01:32:47;101664.20;;;-1.35;60.24
55801;BME280;41730;51.960;20.158;2023-02-28T01:35:34;101666.28;;;-1.38;60.21
55801;BME280;41730;51.960;20.158;2023-02-28T01:38:06;101664.89;;;-1.36;60.20
55801;BME280;41730;51.960;20.158;2023-02-28T01:40:51;101663.82;;;-1.33;60.03
55801;BME280;41730;51.960;20.158;2023-02-28T01:43:27;101663.71;;;-1.38;60.25
55801;BME280;41730;51.960;20.158;2023-02-28T01:46:02;101658.55;;;-1.39;60.13
55801;BME280;41730;51.960;20.158;2023-02-28T01:48:36;101662.36;;;-1.42;60.20
55801;BME280;41730;51.960;20.158;2023-02-28T01:51:13;101662.09;;;-1.49;60.62
55801;BME280;41730;51.960;20.158;2023-02-28T01:53:50;101658.00;;;-1.53;60.38
55801;BME280;41730;51.960;20.158;2023-02-28T01:56:26;101668.02;;;-1.56;60.81
55801;BME280;41730;51.960;20.158;2023-02-28T01:58:59;101665.83;;;-1.63;61.28
55801;BME280;41730;51.960;20.158;2023-02-28T02:01:32;101663.31;;;-1.70;61.21
55801;BME280;41730;51.960;20.158;2023-02-28T02:04:07;101664.89;;;-1.74;61.53
55801;BME280;41730;51.960;20.158;2023-02-28T02:06:44;101661.67;;;-1.60;61.48
55801;BME280;41730;51.960;20.158;2023-02-28T02:09:17;101659.00;;;-1.51;60.99
55801;BME280;41730;51.960;20.158;2023-02-28T02:11:49;101657.16;;;-1.57;61.28
55801;BME280;41730;51.960;20.158;2023-02-28T02:14:33;101656.10;;;-1.72;61.27
55801;BME280;41730;51.960;20.158;2023-02-28T02:17:23;101654.58;;;-1.75;61.47
55801;BME280;41730;51.960;20.158;2023-02-28T02:26:09;101656.49;;;-1.77;61.76
55801;BME280;41730;51.960;20.158;2023-02-28T02:29:06;101654.28;;;-1.81;61.74
55801;BME280;41730;51.960;20.158;2023-02-28T02:32:08;101651.48;;;-1.75;61.75
55801;BME280;41730;51.960;20.158;2023-02-28T02:34:50;101652.19;;;-1.76;61.45
55801;BME280;41730;51.960;20.158;2023-02-28T02:37:29;101655.49;;;-1.82;61.80
55801;BME280;41730;51.960;20.158;2023-02-28T02:40:09;101655.35;;;-1.85;61.88
55801;BME280;41730;51.960;20.158;2023-02-28T02:42:47;101656.27;;;-1.94;62.09
55801;BME280;41730;51.960;20.158;2023-02-28T02:45:25;101658.38;;;-1.98;62.08
55801;BME280;41730;51.960;20.158;2023-02-28T02:48:00;101660.55;;;-1.89;62.00
55801;BME280;41730;51.960;20.158;2023-02-28T02:50:36;101662.63;;;-1.90;61.83
55801;BME280;41730;51.960;20.158;2023-02-28T02:53:10;101661.91;;;-1.88;62.02
55801;BME280;41730;51.960;20.158;2023-02-28T02:55:46;101662.50;;;-1.97;62.15
55801;BME280;41730;51.960;20.158;2023-02-28T02:58:27;101667.55;;;-2.05;62.42
55801;BME280;41730;51.960;20.158;2023-02-28T03:01:03;101664.66;;;-2.10;62.47
55801;BME280;41730;51.960;20.158;2023-02-28T03:03:36;101667.20;;;-2.03;62.77
55801;BME280;41730;51.960;20.158;2023-02-28T03:06:08;101670.31;;;-2.08;62.60
55801;BME280;41730;51.960;20.158;2023-02-28T03:08:40;101668.95;;;-2.10;62.95
55801;BME280;41730;51.960;20.158;2023-02-28T03:11:15;101669.48;;;-2.12;63.37
55801;BME280;41730;51.960;20.158;2023-02-28T03:14:13;101674.36;;;-2.20;63.52
55801;BME280;41730;51.960;20.158;2023-02-28T03:17:02;101680.73;;;-2.23;63.89
55801;BME280;41730;51.960;20.158;2023-02-28T03:20:01;101679.84;;;-2.20;63.19
55801;BME280;41730;51.960;20.158;2023-02-28T03:22:50;101677.80;;;-2.24;63.31
55801;BME280;41730;51.960;20.158;2023-02-28T03:25:29;101678.54;;;-2.32;63.62
55801;BME280;41730;51.960;20.158;2023-02-28T03:28:11;101677.69;;;-2.33;63.33
55801;BME280;41730;51.960;20.158;2023-02-28T03:30:49;101678.40;;;-2.39;63.19
55801;BME280;41730;51.960;20.158;2023-02-28T03:33:26;101682.36;;;-2.39;63.43
55801;BME280;41730;51.960;20.158;2023-02-28T03:36:02;101685.59;;;-2.33;63.30
55801;BME280;41730;51.960;20.158;2023-02-28T03:38:37;101686.14;;;-2.41;63.85
55801;BME280;41730;51.960;20.158;2023-02-28T03:41:14;101689.28;;;-2.48;64.01
55801;BME280;41730;51.960;20.158;2023-02-28T03:43:56;101692.00;;;-2.45;64.06
55801;BME280;41730;51.960;20.158;2023-02-28T03:46:34;101692.68;;;-2.39;63.57
55801;BME280;41730;51.960;20.158;2023-02-28T03:49:11;101690.27;;;-2.39;63.62
55801;BME280;41730;51.960;20.158;2023-02-28T03:51:47;101687.68;;;-2.38;63.87
55801;BME280;41730;51.960;20.158;2023-02-28T03:54:23;101692.71;;;-2.48;63.83
55801;BME280;41730;51.960;20.158;2023-02-28T03:57:02;101694.66;;;-2.58;63.91
55801;BME280;41730;51.960;20.158;2023-02-28T03:59:39;101696.39;;;-2.62;64.15
55801;BME280;41730;51.960;20.158;2023-02-28T04:02:13;101697.97;;;-2.71;64.55
55801;BME280;41730;51.960;20.158;2023-02-28T04:04:45;101700.55;;;-2.72;64.56
55801;BME280;41730;51.960;20.158;2023-02-28T04:07:19;101702.43;;;-2.71;64.25
55801;BME280;41730;51.960;20.158;2023-02-28T04:09:51;101704.45;;;-2.59;64.15
55801;BME280;41730;51.960;20.158;2023-02-28T04:12:23;101702.26;;;-2.70;64.25
55801;BME280;41730;51.960;20.158;2023-02-28T04:14:55;101701.44;;;-2.76;64.37
55801;BME280;41730;51.960;20.158;2023-02-28T04:17:27;101708.61;;;-2.70;64.91
55801;BME280;41730;51.960;20.158;2023-02-28T04:19:59;101701.75;;;-2.71;64.64
55801;BME280;41730;51.960;20.158;2023-02-28T04:22:30;101703.64;;;-2.74;65.16
55801;BME280;41730;51.960;20.158;2023-02-28T04:25:02;101701.81;;;-2.88;65.46
55801;BME280;41730;51.960;20.158;2023-02-28T04:27:35;101704.73;;;-2.94;65.39
55801;BME280;41730;51.960;20.158;2023-02-28T04:41:38;101701.92;;;-2.35;63.57
55801;BME280;41730;51.960;20.158;2023-02-28T04:44:09;101702.50;;;-2.47;63.94
55801;BME280;41730;51.960;20.158;2023-02-28T04:46:41;101700.89;;;-2.70;63.93
55801;BME280;41730;51.960;20.158;2023-02-28T04:49:14;101709.36;;;-2.89;65.15
55801;BME280;41730;51.960;20.158;2023-02-28T04:51:47;101707.50;;;-3.01;65.39
55801;BME280;41730;51.960;20.158;2023-02-28T04:54:19;101709.77;;;-3.09;65.87
55801;BME280;41730;51.960;20.158;2023-02-28T04:56:51;101713.17;;;-3.08;65.75
55801;BME280;41730;51.960;20.158;2023-02-28T04:59:23;101714.56;;;-3.02;65.65
55801;BME280;41730;51.960;20.158;2023-02-28T05:01:55;101712.98;;;-2.97;65.58
55801;BME280;41730;51.960;20.158;2023-02-28T05:04:26;101717.60;;;-2.92;65.01
55801;BME280;41730;51.960;20.158;2023-02-28T05:06:58;101717.41;;;-2.85;65.06
55801;BME280;41730;51.960;20.158;2023-02-28T05:09:30;101714.84;;;-2.87;64.79
55801;BME280;41730;51.960;20.158;2023-02-28T05:12:03;101716.95;;;-3.03;65.26
55801;BME280;41730;51.960;20.158;2023-02-28T05:14:34;101715.75;;;-3.04;65.26
55801;BME280;41730;51.960;20.158;2023-02-28T05:17:06;101720.73;;;-3.04;65.24
55801;BME280;41730;51.960;20.158;2023-02-28T05:19:38;101724.48;;;-2.98;64.84
55801;BME280;41730;51.960;20.158;2023-02-28T05:22:14;101721.38;;;-2.89;64.51
55801;BME280;41730;51.960;20.158;2023-02-28T05:24:47;101730.30;;;-2.87;64.43
55801;BME280;41730;51.960;20.158;2023-02-28T05:27:18;101731.32;;;-2.84;64.15
55801;BME280;41730;51.960;20.158;2023-02-28T05:29:50;101736.84;;;-2.93;64.32
55801;BME280;41730;51.960;20.158;2023-02-28T05:32:22;101736.48;;;-2.89;64.81
55801;BME280;41730;51.960;20.158;2023-02-28T05:34:53;101737.33;;;-2.87;65.06
55801;BME280;41730;51.960;20.158;2023-02-28T05:37:25;101739.22;;;-2.88;64.64
55801;BME280;41730;51.960;20.158;2023-02-28T05:39:56;101736.11;;;-2.80;64.73
55801;BME280;41730;51.960;20.158;2023-02-28T05:42:28;101737.82;;;-2.78;64.67
55801;BME280;41730;51.960;20.158;2023-02-28T05:45:00;101739.52;;;-2.71;64.84
55801;BME280;41730;51.960;20.158;2023-02-28T05:47:31;101735.73;;;-2.70;64.44
55801;BME280;41730;51.960;20.158;2023-02-28T05:50:03;101738.29;;;-2.63;64.86
55801;BME280;41730;51.960;20.158;2023-02-28T05:52:36;101743.92;;;-2.54;64.92
55801;BME280;41730;51.960;20.158;2023-02-28T05:55:09;101743.05;;;-2.51;64.78
55801;BME280;41730;51.960;20.158;2023-02-28T05:57:41;101741.52;;;-2.56;65.09
55801;BME280;41730;51.960;20.158;2023-02-28T06:00:15;101743.20;;;-2.44;64.73
55801;BME280;41730;51.960;20.158;2023-02-28T06:02:47;101742.44;;;-2.29;64.64
55801;BME280;41730;51.960;20.158;2023-02-28T06:05:19;101744.05;;;-2.12;65.16
55801;BME280;41730;51.960;20.158;2023-02-28T06:07:50;101745.95;;;-1.84;65.87
55801;BME280;41730;51.960;20.158;2023-02-28T06:10:22;101750.05;;;-1.37;66.21
55801;BME280;41730;51.960;20.158;2023-02-28T06:12:54;101756.35;;;-0.92;65.83
55801;BME280;41730;51.960;20.158;2023-02-28T06:15:25;101760.93;;;-0.70;65.63
55801;BME280;41730;51.960;20.158;2023-02-28T06:17:57;101758.33;;;-0.26;65.45
55801;BME280;41730;51.960;20.158;2023-02-28T06:20:30;101756.38;;;0.15;65.62
55801;BME280;41730;51.960;20.158;2023-02-28T06:23:01;101752.41;;;0.59;65.40
55801;BME280;41730;51.960;20.158;2023-02-28T06:25:34;101748.95;;;0.99;65.27
55801;BME280;41730;51.960;20.158;2023-02-28T06:28:05;101750.97;;;1.39;64.87
55801;BME280;41730;51.960;20.158;2023-02-28T06:30:38;101748.65;;;1.76;64.31
55801;BME280;41730;51.960;20.158;2023-02-28T06:33:09;101750.38;;;2.22;63.81
55801;BME280;41730;51.960;20.158;2023-02-28T06:35:42;101749.15;;;2.52;62.65
55801;BME280;41730;51.960;20.158;2023-02-28T06:38:14;101747.91;;;2.67;61.96
55801;BME280;41730;51.960;20.158;2023-02-28T06:40:48;101751.86;;;2.75;61.59
55801;BME280;41730;51.960;20.158;2023-02-28T06:43:27;101755.20;;;2.87;60.93
55801;BME280;41730;51.960;20.158;2023-02-28T06:46:02;101755.52;;;2.88;60.30
55801;BME280;41730;51.960;20.158;2023-02-28T06:48:35;101759.44;;;2.84;59.66
55801;BME280;41730;51.960;20.158;2023-02-28T06:51:11;101760.41;;;2.66;59.49
55801;BME280;41730;51.960;20.158;2023-02-28T06:53:45;101759.52;;;2.53;59.61
55801;BME280;41730;51.960;20.158;2023-02-28T06:56:17;101761.73;;;2.41;59.81
55801;BME280;41730;51.960;20.158;2023-02-28T06:58:50;101759.17;;;2.39;60.11
55801;BME280;41730;51.960;20.158;2023-02-28T07:01:23;101757.59;;;2.32;60.35
55801;BME280;41730;51.960;20.158;2023-02-28T07:03:54;101755.34;;;2.40;60.62
55801;BME280;41730;51.960;20.158;2023-02-28T07:06:26;101751.38;;;2.60;60.68
55801;BME280;41730;51.960;20.158;2023-02-28T07:08:58;101754.39;;;2.98;59.96
55801;BME280;41730;51.960;20.158;2023-02-28T07:11:30;101756.27;;;3.12;60.10
55801;BME280;41730;51.960;20.158;2023-02-28T07:14:02;101761.27;;;3.26;59.73
55801;BME280;41730;51.960;20.158;2023-02-28T07:16:34;101762.25;;;3.40;59.52
55801;BME280;41730;51.960;20.158;2023-02-28T07:19:06;101766.76;;;3.65;58.66
55801;BME280;41730;51.960;20.158;2023-02-28T07:21:38;101763.58;;;3.85;58.27
55801;BME280;41730;51.960;20.158;2023-02-28T07:24:10;101767.66;;;3.87;58.32
55801;BME280;41730;51.960;20.158;2023-02-28T07:26:42;101767.73;;;3.91;58.19
55801;BME280;41730;51.960;20.158;2023-02-28T07:29:14;101765.73;;;3.99;57.75
55801;BME280;41730;51.960;20.158;2023-02-28T07:31:48;101763.52;;;4.04;57.56
55801;BME280;41730;51.960;20.158;2023-02-28T07:34:23;101762.46;;;3.98;57.40
55801;BME280;41730;51.960;20.158;2023-02-28T07:36:56;101759.59;;;4.19;57.31
55801;BME280;41730;51.960;20.158;2023-02-28T07:39:28;101758.66;;;4.37;56.61
55801;BME280;41730;51.960;20.158;2023-02-28T07:42:00;101761.04;;;4.34;57.02
55801;BME280;41730;51.960;20.158;2023-02-28T07:44:34;101755.71;;;4.42;56.90
55801;BME280;41730;51.960;20.158;2023-02-28T07:47:11;101748.49;;;4.45;56.51
55801;BME280;41730;51.960;20.158;2023-02-28T07:49:42;101756.77;;;4.58;56.54
55801;BME280;41730;51.960;20.158;2023-02-28T07:52:15;101759.41;;;4.67;55.98
55801;BME280;41730;51.960;20.158;2023-02-28T07:54:47;101758.35;;;4.73;55.73
55801;BME280;41730;51.960;20.158;2023-02-28T07:57:19;101759.63;;;4.87;55.70
55801;BME280;41730;51.960;20.158;2023-02-28T07:59:52;101761.52;;;5.08;55.03
55801;BME280;41730;51.960;20.158;2023-02-28T08:02:24;101762.88;;;5.19;54.21
55801;BME280;41730;51.960;20.158;2023-02-28T08:04:56;101765.05;;;5.31;53.80
55801;BME280;41730;51.960;20.158;2023-02-28T08:07:28;101761.39;;;5.41;53.05
55801;BME280;41730;51.960;20.158;2023-02-28T08:10:01;101761.23;;;5.50;52.64
55801;BME280;41730;51.960;20.158;2023-02-28T08:12:37;101757.13;;;5.43;53.38
55801;BME280;41730;51.960;20.158;2023-02-28T08:15:12;101757.42;;;5.63;52.73
55801;BME280;41730;51.960;20.158;2023-02-28T08:17:44;101760.95;;;5.67;52.09
55801;BME280;41730;51.960;20.158;2023-02-28T08:20:17;101762.27;;;5.68;51.75
55801;BME280;41730;51.960;20.158;2023-02-28T08:22:49;101758.64;;;5.63;51.78
55801;BME280;41730;51.960;20.158;2023-02-28T08:25:21;101761.91;;;5.69;51.78
55801;BME280;41730;51.960;20.158;2023-02-28T08:27:54;101756.30;;;5.79;50.46
55801;BME280;41730;51.960;20.158;2023-02-28T08:30:26;101757.95;;;5.86;48.78
55801;BME280;41730;51.960;20.158;2023-02-28T08:32:58;101750.07;;;5.69;49.07
55801;BME280;41730;51.960;20.158;2023-02-28T08:35:30;101757.02;;;5.69;49.50
55801;BME280;41730;51.960;20.158;2023-02-28T08:38:01;101762.22;;;5.70;49.23
55801;BME280;41730;51.960;20.158;2023-02-28T08:40:33;101758.38;;;5.66;49.41
55801;BME280;41730;51.960;20.158;2023-02-28T08:43:05;101754.81;;;5.87;48.80
55801;BME280;41730;51.960;20.158;2023-02-28T08:45:38;101752.36;;;5.82;48.68
55801;BME280;41730;51.960;20.158;2023-02-28T08:48:10;101749.63;;;5.80;48.81
55801;BME280;41730;51.960;20.158;2023-02-28T08:50:43;101751.93;;;5.80;49.08
55801;BME280;41730;51.960;20.158;2023-02-28T08:53:25;101747.84;;;5.87;48.65
55801;BME280;41730;51.960;20.158;2023-02-28T08:56:02;101749.61;;;5.96;48.64
55801;BME280;41730;51.960;20.158;2023-02-28T08:58:35;101746.89;;;5.89;48.37
55801;BME280;41730;51.960;20.158;2023-02-28T09:01:11;101745.71;;;5.92;48.50
55801;BME280;41730;51.960;20.158;2023-02-28T09:03:44;101746.23;;;6.07;47.90
55801;BME280;41730;51.960;20.158;2023-02-28T09:06:18;101747.06;;;6.03;47.87
55801;BME280;41730;51.960;20.158;2023-02-28T09:08:51;101743.62;;;5.92;48.26
55801;BME280;41730;51.960;20.158;2023-02-28T09:11:24;101744.20;;;6.01;48.08
55801;BME280;41730;51.960;20.158;2023-02-28T09:13:55;101744.98;;;5.99;48.42
55801;BME280;41730;51.960;20.158;2023-02-28T09:16:29;101746.06;;;5.93;48.51
55801;BME280;41730;51.960;20.158;2023-02-28T09:19:02;101748.83;;;5.98;47.99
55801;BME280;41730;51.960;20.158;2023-02-28T09:21:34;101752.75;;;5.95;47.05
55801;BME280;41730;51.960;20.158;2023-02-28T09:24:07;101750.55;;;5.70;47.28
55801;BME280;41730;51.960;20.158;2023-02-28T09:26:41;101751.05;;;5.52;47.87
55801;BME280;41730;51.960;20.158;2023-02-28T09:29:33;101752.75;;;5.62;47.75
55801;BME280;41730;51.960;20.158;2023-02-28T09:32:07;101748.83;;;5.74;47.55
55801;BME280;41730;51.960;20.158;2023-02-28T09:34:39;101743.05;;;5.75;47.54
55801;BME280;41730;51.960;20.158;2023-02-28T09:37:11;101746.19;;;5.70;47.55
55801;BME280;41730;51.960;20.158;2023-02-28T09:39:43;101748.59;;;5.62;47.83
55801;BME280;41730;51.960;20.158;2023-02-28T09:42:21;101749.41;;;5.59;47.65
55801;BME280;41730;51.960;20.158;2023-02-28T09:44:56;101752.52;;;5.64;47.60
55801;BME280;41730;51.960;20.158;2023-02-28T09:47:32;101754.48;;;5.86;47.15
55801;BME280;41730;51.960;20.158;2023-02-28T09:50:16;101755.15;;;5.77;47.19
55801;BME280;41730;51.960;20.158;2023-02-28T09:52:51;101752.55;;;5.86;47.20
55801;BME280;41730;51.960;20.158;2023-02-28T09:55:30;101754.58;;;5.79;47.31
55801;BME280;41730;51.960;20.158;2023-02-28T09:58:20;101757.27;;;5.86;47.45
55801;BME280;41730;51.960;20.158;2023-02-28T10:00:59;101756.11;;;5.89;47.40
55801;BME280;41730;51.960;20.158;2023-02-28T10:03:38;101751.04;;;5.99;47.17
55801;BME280;41730;51.960;20.158;2023-02-28T10:06:16;101751.79;;;5.88;46.92
55801;BME280;41730;51.960;20.158;2023-02-28T10:08:56;101753.84;;;5.85;46.40
55801;BME280;41730;51.960;20.158;2023-02-28T10:11:33;101757.80;;;5.63;46.36
55801;BME280;41730;51.960;20.158;2023-02-28T10:14:12;101756.41;;;5.48;46.64
55801;BME280;41730;51.960;20.158;2023-02-28T10:16:48;101758.65;;;5.49;46.78
55801;BME280;41730;51.960;20.158;2023-02-28T10:19:28;101756.20;;;5.49;46.30
55801;BME280;41730;51.960;20.158;2023-02-28T10:22:05;101758.99;;;5.45;46.15
55801;BME280;41730;51.960;20.158;2023-02-28T10:24:41;101758.02;;;5.28;46.45
55801;BME280;41730;51.960;20.158;2023-02-28T10:27:18;101757.77;;;5.15;46.79
55801;BME280;41730;51.960;20.158;2023-02-28T10:29:52;101755.65;;;5.06;47.10
55801;BME280;41730;51.960;20.158;2023-02-28T10:32:26;101757.27;;;4.95;46.87
55801;BME280;41730;51.960;20.158;2023-02-28T10:35:06;101754.51;;;4.95;46.89
55801;BME280;41730;51.960;20.158;2023-02-28T10:37:40;101750.25;;;4.97;46.91
55801;BME280;41730;51.960;20.158;2023-02-28T10:40:28;101752.34;;;5.02;46.67
55801;BME280;41730;51.960;20.158;2023-02-28T10:43:02;101753.17;;;4.93;47.04
55801;BME280;41730;51.960;20.158;2023-02-28T10:45:35;101748.40;;;4.89;47.24
55801;BME280;41730;51.960;20.158;2023-02-28T10:48:36;101751.21;;;4.84;47.09
55801;BME280;41730;51.960;20.158;2023-02-28T10:51:10;101747.84;;;4.76;46.77
55801;BME280;41730;51.960;20.158;2023-02-28T10:53:48;101747.76;;;4.78;46.39
55801;BME280;41730;51.960;20.158;2023-02-28T10:56:31;101742.79;;;4.66;46.77
55801;BME280;41730;51.960;20.158;2023-02-28T10:59:20;101741.48;;;4.59;46.90
55801;BME280;41730;51.960;20.158;2023-02-28T11:01:55;101745.16;;;4.57;47.13
55801;BME280;41730;51.960;20.158;2023-02-28T11:04:37;101740.48;;;4.51;47.21
55801;BME280;41730;51.960;20.158;2023-02-28T11:07:20;101737.08;;;4.33;47.25
55801;BME280;41730;51.960;20.158;2023-02-28T11:09:56;101731.95;;;4.25;47.47
55801;BME280;41730;51.960;20.158;2023-02-28T11:12:28;101735.48;;;4.34;47.29
55801;BME280;41730;51.960;20.158;2023-02-28T11:15:05;101733.33;;;4.42;47.22
55801;BME280;41730;51.960;20.158;2023-02-28T11:17:38;101726.06;;;4.46;46.89
55801;BME280;41730;51.960;20.158;2023-02-28T11:20:20;101726.66;;;4.39;46.62
55801;BME280;41730;51.960;20.158;2023-02-28T11:22:54;101718.35;;;4.28;46.83
55801;BME280;41730;51.960;20.158;2023-02-28T11:25:32;101717.09;;;4.34;47.11
55801;BME280;41730;51.960;20.158;2023-02-28T11:28:06;101712.72;;;4.40;47.08
55801;BME280;41730;51.960;20.158;2023-02-28T11:31:05;101711.80;;;4.47;46.83
55801;BME280;41730;51.960;20.158;2023-02-28T11:33:44;101709.53;;;4.53;46.70
55801;BME280;41730;51.960;20.158;2023-02-28T11:36:22;101703.99;;;4.41;47.17
55801;BME280;41730;51.960;20.158;2023-02-28T11:38:56;101703.91;;;4.38;47.26
55801;BME280;41730;51.960;20.158;2023-02-28T11:41:52;101697.97;;;4.50;47.32
55801;BME280;41730;51.960;20.158;2023-02-28T11:44:42;101694.27;;;4.72;46.45
55801;BME280;41730;51.960;20.158;2023-02-28T11:47:19;101691.38;;;4.56;45.61
55801;BME280;41730;51.960;20.158;2023-02-28T11:50:12;101688.41;;;4.40;45.65
55801;BME280;41730;51.960;20.158;2023-02-28T11:52:54;101689.51;;;4.28;46.19
55801;BME280;41730;51.960;20.158;2023-02-28T11:55:29;101684.60;;;4.40;46.22
55801;BME280;41730;51.960;20.158;2023-02-28T11:58:13;101679.91;;;4.35;46.66
55801;BME280;41730;51.960;20.158;2023-02-28T12:00:57;101674.67;;;4.40;46.49
55801;BME280;41730;51.960;20.158;2023-02-28T12:03:43;101679.41;;;4.44;46.28
55801;BME280;41730;51.960;20.158;2023-02-28T12:06:20;101674.73;;;4.39;46.51
55801;BME280;41730;51.960;20.158;2023-02-28T12:09:11;101672.89;;;4.37;46.70
55801;BME280;41730;51.960;20.158;2023-02-28T12:11:52;101669.75;;;4.32;46.79
55801;BME280;41730;51.960;20.158;2023-02-28T12:14:40;101665.26;;;4.26;47.01
55801;BME280;41730;51.960;20.158;2023-02-28T12:17:26;101660.98;;;4.35;47.19
55801;BME280;41730;51.960;20.158;2023-02-28T12:20:08;101658.38;;;4.50;46.94
55801;BME280;41730;51.960;20.158;2023-02-28T12:22:52;101657.96;;;4.52;47.20
55801;BME280;41730;51.960;20.158;2023-02-28T12:25:52;101652.39;;;4.77;46.74
55801;BME280;41730;51.960;20.158;2023-02-28T12:28:30;101649.38;;;4.79;46.92
55801;BME280;41730;51.960;20.158;2023-02-28T12:31:06;101647.42;;;4.71;47.07
55801;BME280;41730;51.960;20.158;2023-02-28T12:33:45;101642.65;;;4.77;46.81
55801;BME280;41730;51.960;20.158;2023-02-28T12:36:19;101640.41;;;4.67;47.26
55801;BME280;41730;51.960;20.158;2023-02-28T12:38:58;101641.08;;;4.68;47.37
55801;BME280;41730;51.960;20.158;2023-02-28T12:41:36;101643.91;;;4.67;47.24
55801;BME280;41730;51.960;20.158;2023-02-28T12:44:11;101636.91;;;4.92;46.92
55801;BME280;41730;51.960;20.158;2023-02-28T12:46:46;101635.23;;;4.95;46.91
55801;BME280;41730;51.960;20.158;2023-02-28T12:49:25;101632.03;;;5.07;46.82
55801;BME280;41730;51.960;20.158;2023-02-28T12:52:02;101630.86;;;4.91;46.91
55801;BME280;41730;51.960;20.158;2023-02-28T12:54:41;101627.79;;;4.80;47.28
55801;BME280;41730;51.960;20.158;2023-02-28T12:57:22;101626.90;;;4.80;47.22
55801;BME280;41730;51.960;20.158;2023-02-28T12:59:59;101618.31;;;4.83;47.36
55801;BME280;41730;51.960;20.158;2023-02-28T13:03:04;101618.22;;;4.90;47.41
55801;BME280;41730;51.960;20.158;2023-02-28T13:05:53;101613.10;;;4.87;47.16
55801;BME280;41730;51.960;20.158;2023-02-28T13:08:41;101610.48;;;4.98;46.43
55801;BME280;41730;51.960;20.158;2023-02-28T13:11:28;101610.63;;;4.84;46.31
55801;BME280;41730;51.960;20.158;2023-02-28T13:14:03;101612.42;;;4.67;46.65
55801;BME280;41730;51.960;20.158;2023-02-28T13:16:58;101611.38;;;4.78;46.69
55801;BME280;41730;51.960;20.158;2023-02-28T13:19:33;101607.86;;;4.88;46.45
55801;BME280;41730;51.960;20.158;2023-02-28T13:22:10;101605.55;;;4.90;46.64
55801;BME280;41730;51.960;20.158;2023-02-28T13:24:51;101607.75;;;4.91;46.73
55801;BME280;41730;51.960;20.158;2023-02-28T13:27:34;101604.41;;;4.83;47.01
55801;BME280;41730;51.960;20.158;2023-02-28T13:33:30;101604.02;;;4.70;47.38
55801;BME280;41730;51.960;20.158;2023-02-28T13:36:28;101599.71;;;4.64;47.29
55801;BME280;41730;51.960;20.158;2023-02-28T13:39:03;101596.46;;;4.67;47.20
55801;BME280;41730;51.960;20.158;2023-02-28T13:41:48;101599.70;;;4.60;47.44
55801;BME280;41730;51.960;20.158;2023-02-28T13:44:22;101597.52;;;4.57;47.36
55801;BME280;41730;51.960;20.158;2023-02-28T13:47:28;101594.66;;;4.59;47.34
55801;BME280;41730;51.960;20.158;2023-02-28T13:50:27;101596.03;;;4.69;47.36
55801;BME280;41730;51.960;20.158;2023-02-28T13:56:42;101598.91;;;4.72;47.37